San Juan Capistrano, California
Current Conditions -  °F | °C
As of 11:53 AM on Thursday 23 Oct 2014 (Local Time) from KSNA Reporting Station
Few Clouds Few Clouds  
Wind Chill: 80°   Ceiling: Unl
Heat Index: 81°   Visibility: 9mi
Dew Point: 58°   Wind: 3mph
Humidity: 47%   Direction: NA
Pressure: 29.98"   Gusts: NA
Location:  33.5°N, 117.66°W
Report Text: KSNA 231853Z VRB03KT 9SM FEW300 27/14 A2998 RMK AO2 SLP152 T02670144
Loading
Personal Weather Stations






























Interactive Weather Map
Tropical Storm Tracking
New forecast layout! Learn more

10-Day Weather Forecast

Advertisements
Track Severe Weather on mobile